Terminal Aerodrome Forecast
Issued by NWS

Current Version | Previous Version | Text Only | Print | Product List | Glossary Off
Versions: 1 2 3 4 5 6 7 8 9 10 11 12 13 14 15 16 17 18 19 20 21

000
FTUS41 KRNK 170946 AAA
TAFLWB
TAF AMD
KLWB 170946Z 1710/1806 VRB03KT P6SM OVC023
     FM171300 00000KT P6SM SCT020
     FM171700 25003KT P6SM SCT250=

USA.gov is the U.S. government's official web portal to all federal, state and local government web resources and services.